createdAt,value
2017-06-16T00:01:24.425Z,8.30
2017-06-16T00:03:50.723Z,3.07
2017-06-16T00:06:16.972Z,4.23
2017-06-16T00:08:43.174Z,17.47
2017-06-16T00:11:09.386Z,7.60
2017-06-16T00:13:36.331Z,11.13
2017-06-16T00:16:02.506Z,4.93
2017-06-16T00:18:28.669Z,5.37
2017-06-16T00:20:54.884Z,6.57
2017-06-16T00:23:21.783Z,5.90
2017-06-16T00:25:47.977Z,6.47
2017-06-16T00:28:14.321Z,8.13
2017-06-16T00:30:40.509Z,7.43
2017-06-16T00:33:07.607Z,4.97
2017-06-16T00:35:33.759Z,6.67
2017-06-16T00:37:59.971Z,7.00
2017-06-16T00:40:26.215Z,4.17
2017-06-16T00:42:52.391Z,4.60
2017-06-16T00:45:18.605Z,6.10
2017-06-16T00:47:45.579Z,3.47
2017-06-16T00:50:11.758Z,5.03
2017-06-16T00:52:38.050Z,5.40
2017-06-16T00:55:04.471Z,4.30
2017-06-16T00:57:30.704Z,5.10
2017-06-16T00:59:56.905Z,4.00
2017-06-16T01:02:23.806Z,3.80
2017-06-16T01:04:49.974Z,4.00
2017-06-16T01:07:17.040Z,5.00
2017-06-16T01:09:43.778Z,7.43
2017-06-16T01:12:11.464Z,6.60
2017-06-16T01:14:39.118Z,12.47
2017-06-16T01:17:05.460Z,3.83
2017-06-16T01:19:31.751Z,5.40
2017-06-16T01:21:58.780Z,6.17
2017-06-16T01:24:24.937Z,3.80
2017-06-16T01:26:51.867Z,7.27
2017-06-16T01:29:18.798Z,10.60
2017-06-16T01:31:45.156Z,7.10
2017-06-16T01:34:12.100Z,6.00
2017-06-16T01:36:39.026Z,2.47
2017-06-16T01:39:05.220Z,10.80
2017-06-16T01:41:31.536Z,5.50
2017-06-16T01:43:57.688Z,4.30
2017-06-16T01:46:23.902Z,3.60
2017-06-16T01:48:50.156Z,2.80
2017-06-16T01:51:16.372Z,4.70
2017-06-16T01:53:42.573Z,8.50
2017-06-16T01:56:08.817Z,9.00
2017-06-16T01:58:35.019Z,3.03
2017-06-16T02:01:01.254Z,3.80
2017-06-16T02:03:27.486Z,6.90
2017-06-16T02:05:53.675Z,6.13
2017-06-16T02:08:20.861Z,6.70
2017-06-16T02:10:47.006Z,6.47
2017-06-16T02:13:13.690Z,3.60
2017-06-16T02:15:40.926Z,4.70
2017-06-16T02:18:07.487Z,9.63
2017-06-16T02:20:34.389Z,2.57
2017-06-16T02:23:00.584Z,6.00
2017-06-16T02:25:26.760Z,7.00
2017-06-16T02:27:52.978Z,4.70
2017-06-16T02:30:19.198Z,5.00
2017-06-16T02:32:45.494Z,4.03
2017-06-16T02:35:11.658Z,3.70
2017-06-16T02:37:37.822Z,4.90
2017-06-16T02:40:03.998Z,4.60
2017-06-16T02:42:30.178Z,4.00
2017-06-16T02:44:56.344Z,5.53
2017-06-16T02:47:23.275Z,4.10
2017-06-16T02:49:50.211Z,2.27
2017-06-16T02:52:16.508Z,5.10
2017-06-16T02:54:42.733Z,2.50
2017-06-16T02:57:09.029Z,5.67
2017-06-16T02:59:35.334Z,3.20
2017-06-16T03:02:02.343Z,7.73
2017-06-16T03:04:28.540Z,4.10
2017-06-16T03:06:54.719Z,3.17
2017-06-16T03:09:23.771Z,6.23
2017-06-16T03:11:49.954Z,5.60
2017-06-16T03:14:16.694Z,5.07
2017-06-16T03:16:43.586Z,8.93
2017-06-16T03:19:09.789Z,6.37
2017-06-16T03:21:41.979Z,6.00
2017-06-16T03:24:08.162Z,5.30
2017-06-16T03:26:34.324Z,2.27
2017-06-16T03:29:00.589Z,4.83
2017-06-16T03:31:26.766Z,6.03
2017-06-16T03:33:53.784Z,5.20
2017-06-16T03:36:19.958Z,2.50
2017-06-16T03:38:46.095Z,4.17
2017-06-16T03:41:12.287Z,4.40
2017-06-16T03:43:39.199Z,2.50
2017-06-16T03:46:05.367Z,4.97
2017-06-16T03:48:32.298Z,2.93
2017-06-16T03:50:59.253Z,3.13
2017-06-16T03:53:26.148Z,2.30
2017-06-16T03:55:52.313Z,2.13
2017-06-16T03:58:18.498Z,2.80
2017-06-16T04:00:44.678Z,4.77
2017-06-16T04:03:11.623Z,4.60
2017-06-16T04:05:38.554Z,2.10
2017-06-16T04:08:04.703Z,2.10
2017-06-16T04:10:31.646Z,2.53
2017-06-16T04:12:58.547Z,2.97
2017-06-16T04:15:24.765Z,5.30
2017-06-16T04:17:50.939Z,2.50
2017-06-16T04:20:17.104Z,3.93
2017-06-16T04:22:43.367Z,3.80
2017-06-16T04:25:09.529Z,1.60
2017-06-16T04:27:36.431Z,1.93
2017-06-16T04:30:02.650Z,2.20
2017-06-16T04:32:28.808Z,5.83
2017-06-16T04:34:55.018Z,4.60
2017-06-16T04:37:21.186Z,2.90
2017-06-16T04:39:48.118Z,2.30
2017-06-16T04:42:14.356Z,4.40
2017-06-16T04:44:41.278Z,2.93
2017-06-16T04:47:07.494Z,3.40
2017-06-16T04:49:33.647Z,2.23
2017-06-16T04:51:59.815Z,3.30
2017-06-16T04:54:26.030Z,3.80
2017-06-16T04:56:52.937Z,3.10
2017-06-16T04:59:34.060Z,2.63
2017-06-16T05:02:00.282Z,4.20
2017-06-16T05:04:27.265Z,3.57
2017-06-16T05:06:53.442Z,7.57
2017-06-16T05:09:20.320Z,5.23
2017-06-16T05:11:46.526Z,3.17
2017-06-16T05:14:13.464Z,5.80
2017-06-16T05:16:39.663Z,4.07
2017-06-16T05:19:05.830Z,5.27
2017-06-16T05:21:32.745Z,1.90
2017-06-16T05:23:58.941Z,3.10
2017-06-16T05:26:25.075Z,2.33
2017-06-16T05:28:51.291Z,4.90
2017-06-16T05:31:17.466Z,7.10
2017-06-16T05:33:43.653Z,6.30
2017-06-16T05:36:09.852Z,2.83
2017-06-16T05:38:36.006Z,4.33
2017-06-16T05:41:02.243Z,2.67
2017-06-16T05:43:28.408Z,8.40
2017-06-16T05:46:09.496Z,4.07
2017-06-16T05:48:36.419Z,6.60
2017-06-16T05:51:02.606Z,3.10
2017-06-16T05:53:28.787Z,5.87
2017-06-16T05:55:55.384Z,8.50
2017-06-16T05:58:21.518Z,5.97
2017-06-16T06:00:47.708Z,6.23
2017-06-16T06:03:13.854Z,5.10
2017-06-16T06:05:40.028Z,9.57
2017-06-16T06:08:06.180Z,8.87
2017-06-16T06:10:32.339Z,4.60
2017-06-16T06:12:58.514Z,5.07
2017-06-16T06:15:25.487Z,5.97
2017-06-16T06:17:51.713Z,5.30
2017-06-16T06:20:17.903Z,11.73
2017-06-16T06:22:44.089Z,5.97
2017-06-16T06:25:10.301Z,5.60
2017-06-16T06:27:36.474Z,4.00
2017-06-16T06:30:02.670Z,6.00
2017-06-16T06:32:28.855Z,8.57
2017-06-16T06:34:55.059Z,5.10
2017-06-16T06:37:21.254Z,10.33
2017-06-16T06:39:47.441Z,6.60
2017-06-16T06:42:13.628Z,7.13
2017-06-16T06:44:39.815Z,9.27
2017-06-16T06:47:06.747Z,11.53
2017-06-16T06:49:33.654Z,5.63
2017-06-16T06:51:59.786Z,6.20
2017-06-16T06:54:25.998Z,6.70
2017-06-16T06:56:52.244Z,7.07
2017-06-16T06:59:18.398Z,8.60
2017-06-16T07:01:44.554Z,7.73
2017-06-16T07:04:10.748Z,9.40
2017-06-16T07:06:36.931Z,7.77
2017-06-16T07:09:03.109Z,6.77
2017-06-16T07:11:29.332Z,3.50
2017-06-16T07:13:55.504Z,4.40
2017-06-16T07:16:21.678Z,8.67
2017-06-16T07:18:47.863Z,5.67
2017-06-16T07:21:14.066Z,5.83
2017-06-16T07:23:40.256Z,5.30
2017-06-16T07:26:06.479Z,7.10
2017-06-16T07:28:32.638Z,6.60
2017-06-16T07:30:58.813Z,6.70
2017-06-16T07:33:24.981Z,8.47
2017-06-16T07:35:51.163Z,4.37
2017-06-16T07:38:17.418Z,6.03
2017-06-16T07:40:43.611Z,5.40
2017-06-16T07:43:09.883Z,6.83
2017-06-16T07:45:36.084Z,6.53
2017-06-16T07:48:02.278Z,4.83
2017-06-16T07:50:28.892Z,8.80
2017-06-16T07:52:55.075Z,3.83
2017-06-16T07:55:21.288Z,6.20
2017-06-16T07:57:47.544Z,8.30
2017-06-16T08:00:13.711Z,4.47
2017-06-16T08:02:39.971Z,10.70
2017-06-16T08:05:06.882Z,8.73
2017-06-16T08:07:33.061Z,8.37
2017-06-16T08:09:59.288Z,5.47
2017-06-16T08:12:25.482Z,9.03
2017-06-16T08:14:52.406Z,6.47
2017-06-16T08:17:18.668Z,5.70
2017-06-16T08:19:45.598Z,6.90
2017-06-16T08:22:12.197Z,6.77
2017-06-16T08:24:38.360Z,7.33
2017-06-16T08:27:04.528Z,12.33
2017-06-16T08:29:30.723Z,6.67
2017-06-16T08:31:57.650Z,3.90
2017-06-16T08:34:23.953Z,5.03
2017-06-16T08:36:50.735Z,4.30
2017-06-16T08:39:17.435Z,5.87
2017-06-16T08:41:43.768Z,5.50
2017-06-16T08:44:11.036Z,5.10
2017-06-16T08:46:38.860Z,3.73
2017-06-16T08:49:05.115Z,4.80
2017-06-16T08:51:32.433Z,5.20
2017-06-16T08:53:59.434Z,6.37
2017-06-16T08:56:25.610Z,4.57
2017-06-16T08:58:52.569Z,6.67
2017-06-16T09:01:18.736Z,6.40
2017-06-16T09:03:59.899Z,4.63
2017-06-16T09:06:26.112Z,6.70
2017-06-16T09:08:52.282Z,4.77
2017-06-16T09:11:18.465Z,7.13
2017-06-16T09:13:44.746Z,6.77
2017-06-16T09:16:10.958Z,4.83
2017-06-16T09:18:37.187Z,7.73
2017-06-16T09:21:03.383Z,6.83
2017-06-16T09:23:29.538Z,4.73
2017-06-16T09:25:55.752Z,3.27
2017-06-16T09:28:21.916Z,4.80
2017-06-16T09:30:48.089Z,9.20
2017-06-16T09:33:14.291Z,5.40
2017-06-16T09:35:41.210Z,4.03
2017-06-16T09:38:07.397Z,8.90
2017-06-16T09:40:33.595Z,5.93
2017-06-16T09:43:00.762Z,6.77
2017-06-16T09:45:27.036Z,3.60
2017-06-16T09:47:53.773Z,11.03
2017-06-16T09:50:21.327Z,8.53
2017-06-16T09:52:49.616Z,10.93
2017-06-16T09:55:15.794Z,5.53
2017-06-16T09:57:42.029Z,6.00
2017-06-16T10:00:08.506Z,6.70
2017-06-16T10:02:34.699Z,4.60
2017-06-16T10:05:00.882Z,7.60
2017-06-16T10:07:27.474Z,9.30
2017-06-16T10:09:53.671Z,5.57
2017-06-16T10:12:21.104Z,8.30
2017-06-16T10:14:47.317Z,6.33
2017-06-16T10:17:13.928Z,9.77
2017-06-16T10:19:40.100Z,5.83
2017-06-16T10:22:06.370Z,5.50
2017-06-16T10:24:32.563Z,5.03
2017-06-16T10:26:59.077Z,9.13
2017-06-16T10:29:25.231Z,5.00
2017-06-16T10:31:51.507Z,7.23
2017-06-16T10:34:17.737Z,13.33
2017-06-16T10:36:43.936Z,9.07
2017-06-16T10:39:10.888Z,6.03
2017-06-16T10:41:37.083Z,5.93
2017-06-16T10:44:04.273Z,7.13
2017-06-16T10:46:30.530Z,8.80
2017-06-16T10:48:56.906Z,8.23
2017-06-16T10:51:24.331Z,6.50
2017-06-16T10:53:51.715Z,10.10
2017-06-16T10:56:18.310Z,7.77
2017-06-16T10:58:44.634Z,8.63
2017-06-16T11:01:11.652Z,11.57
2017-06-16T11:03:38.970Z,9.70
2017-06-16T11:06:05.259Z,10.23
2017-06-16T11:08:31.627Z,11.87
2017-06-16T11:10:58.557Z,28.17
2017-06-16T11:13:25.676Z,25.87
2017-06-16T11:15:52.000Z,32.87
2017-06-16T11:18:18.947Z,21.30
2017-06-16T11:20:45.824Z,15.37
2017-06-16T11:23:12.451Z,25.90
2017-06-16T11:25:39.206Z,24.73
2017-06-16T11:28:07.491Z,16.70
2017-06-16T11:30:34.794Z,10.30
2017-06-16T11:33:02.952Z,9.83
2017-06-16T11:35:29.398Z,7.43
2017-06-16T11:37:55.783Z,8.43
2017-06-16T11:40:22.115Z,8.33
2017-06-16T11:42:48.989Z,13.30
2017-06-16T11:45:17.111Z,9.20
2017-06-16T11:47:45.438Z,13.30
2017-06-16T11:50:11.866Z,12.60
2017-06-16T11:52:38.162Z,10.83
2017-06-16T11:55:04.698Z,7.70
2017-06-16T11:57:31.052Z,15.97
2017-06-16T11:59:57.275Z,10.83
2017-06-16T12:02:23.484Z,9.97
2017-06-16T12:04:49.676Z,18.37
2017-06-16T12:07:15.906Z,8.43
2017-06-16T12:09:42.868Z,11.30
2017-06-16T12:12:09.079Z,12.50
2017-06-16T12:14:36.091Z,7.10
2017-06-16T12:17:02.287Z,9.60
2017-06-16T12:19:29.083Z,8.30
2017-06-16T12:21:56.775Z,8.90
2017-06-16T12:24:23.177Z,6.80
2017-06-16T12:26:49.358Z,6.40
2017-06-16T12:29:15.534Z,8.70
2017-06-16T12:31:41.788Z,9.07
2017-06-16T12:34:08.000Z,6.80
2017-06-16T12:36:34.960Z,6.10
2017-06-16T12:39:16.843Z,4.10
2017-06-16T12:41:43.937Z,9.20
2017-06-16T12:44:10.118Z,9.73
2017-06-16T12:46:36.334Z,10.00
2017-06-16T12:49:02.556Z,3.90
2017-06-16T12:51:28.772Z,7.90
2017-06-16T12:53:54.944Z,5.10
2017-06-16T12:56:21.872Z,6.70
2017-06-16T12:58:48.109Z,8.20
2017-06-16T13:01:15.075Z,5.03
2017-06-16T13:03:41.991Z,5.87
2017-06-16T13:06:08.227Z,6.23
2017-06-16T13:08:34.399Z,4.93
2017-06-16T13:11:00.597Z,5.13
2017-06-16T13:13:27.581Z,5.00
2017-06-16T13:15:53.846Z,5.30
2017-06-16T13:18:20.014Z,6.90
2017-06-16T13:20:47.039Z,6.87
2017-06-16T13:23:13.999Z,8.30
2017-06-16T13:25:40.935Z,5.63
2017-06-16T13:28:07.888Z,7.70
2017-06-16T13:30:34.850Z,9.57
2017-06-16T13:33:01.042Z,6.50
2017-06-16T13:35:27.970Z,7.30
2017-06-16T13:37:54.162Z,11.63
2017-06-16T13:40:20.425Z,4.97
2017-06-16T13:42:46.616Z,6.63
2017-06-16T13:45:12.802Z,7.83
2017-06-16T13:47:39.001Z,5.60
2017-06-16T13:50:06.462Z,9.30
2017-06-16T13:52:32.723Z,8.17
2017-06-16T13:55:00.679Z,6.20
2017-06-16T13:57:26.967Z,7.10
2017-06-16T13:59:53.475Z,6.17
2017-06-16T14:02:19.670Z,10.10
2017-06-16T14:04:45.862Z,7.10
2017-06-16T14:07:13.409Z,7.13
2017-06-16T14:09:41.007Z,7.93
2017-06-16T14:12:08.023Z,10.00
2017-06-16T14:14:34.220Z,9.90
2017-06-16T14:17:02.070Z,8.13
2017-06-16T14:19:30.692Z,7.60
2017-06-16T14:21:56.909Z,10.87
2017-06-16T14:24:23.831Z,5.67
2017-06-16T14:26:50.043Z,9.50
2017-06-16T14:29:16.245Z,5.63
2017-06-16T14:31:42.396Z,7.87
2017-06-16T14:34:08.720Z,10.40
2017-06-16T14:36:43.258Z,7.00
2017-06-16T14:39:10.953Z,9.83
2017-06-16T14:41:37.881Z,7.13
2017-06-16T14:44:04.067Z,5.70
2017-06-16T14:46:30.388Z,10.07
2017-06-16T14:48:56.578Z,8.30
2017-06-16T14:51:23.637Z,5.90
2017-06-16T14:53:50.571Z,6.87
2017-06-16T14:56:17.510Z,11.73
2017-06-16T14:58:43.733Z,7.70
2017-06-16T15:01:10.103Z,4.37
2017-06-16T15:03:36.315Z,7.10
2017-06-16T15:06:03.258Z,8.33
2017-06-16T15:08:30.216Z,6.93
2017-06-16T15:10:56.436Z,5.63
2017-06-16T15:13:23.360Z,8.13
2017-06-16T15:15:50.725Z,6.40
2017-06-16T15:18:16.877Z,7.70
2017-06-16T15:20:43.074Z,6.10
2017-06-16T15:23:13.313Z,11.17
2017-06-16T15:25:44.572Z,3.80
2017-06-16T15:28:11.252Z,6.00
2017-06-16T15:30:49.459Z,6.83
2017-06-16T15:33:16.649Z,7.17
2017-06-16T15:35:42.901Z,7.17
2017-06-16T15:38:09.822Z,5.57
2017-06-16T15:40:36.010Z,3.57
2017-06-16T15:43:02.247Z,4.80
2017-06-16T15:45:28.453Z,5.53
2017-06-16T15:47:54.738Z,7.27
2017-06-16T15:50:20.934Z,8.93
2017-06-16T15:52:47.353Z,5.30
2017-06-16T15:55:13.842Z,6.70
2017-06-16T15:57:41.796Z,5.97
2017-06-16T16:00:08.069Z,11.60
2017-06-16T16:02:34.529Z,6.30
2017-06-16T16:05:01.416Z,5.40
2017-06-16T16:07:27.704Z,3.70
2017-06-16T16:09:55.072Z,4.53
2017-06-16T16:12:22.222Z,8.80
2017-06-16T16:14:50.512Z,5.43
2017-06-16T16:17:16.699Z,9.13
2017-06-16T16:19:42.943Z,11.57
2017-06-16T16:22:09.240Z,6.53
2017-06-16T16:24:36.180Z,6.20
2017-06-16T16:27:03.226Z,4.83
2017-06-16T16:29:30.197Z,9.33
2017-06-16T16:31:58.744Z,7.40
2017-06-16T16:34:26.603Z,6.53
2017-06-16T16:36:52.819Z,6.17
2017-06-16T16:39:19.499Z,6.40
2017-06-16T16:41:48.277Z,8.40
2017-06-16T16:44:14.502Z,10.60
2017-06-16T16:46:41.654Z,5.53
2017-06-16T16:49:09.226Z,6.03
2017-06-16T16:51:35.820Z,7.10
2017-06-16T16:54:02.158Z,5.73
2017-06-16T16:56:28.573Z,5.53
2017-06-16T16:58:54.849Z,5.67
2017-06-16T17:01:23.353Z,5.20
2017-06-16T17:03:51.951Z,7.27
2017-06-16T17:06:18.338Z,7.80
2017-06-16T17:08:44.566Z,3.90
2017-06-16T17:11:11.829Z,6.63
2017-06-16T17:13:40.110Z,6.80
2017-06-16T17:16:06.483Z,6.80
2017-06-16T17:18:32.879Z,6.90
2017-06-16T17:20:59.933Z,4.63
2017-06-16T17:23:26.215Z,4.37
2017-06-16T17:25:52.502Z,10.43
2017-06-16T17:28:18.930Z,10.50
2017-06-16T17:30:45.248Z,8.53
2017-06-16T17:33:11.565Z,9.23
2017-06-16T17:35:39.777Z,13.43
2017-06-16T17:38:06.084Z,11.37
2017-06-16T17:40:33.213Z,20.47
2017-06-16T17:43:00.596Z,17.57
2017-06-16T17:45:26.942Z,27.47
2017-06-16T17:47:54.104Z,29.03
2017-06-16T17:50:20.408Z,16.57
2017-06-16T17:52:47.540Z,15.60
2017-06-16T17:55:14.615Z,16.70
2017-06-16T17:57:41.608Z,12.37
2017-06-16T18:00:08.826Z,16.47
2017-06-16T18:02:36.167Z,7.10
2017-06-16T18:05:02.566Z,7.20
2017-06-16T18:07:28.881Z,12.87
2017-06-16T18:09:55.838Z,14.80
2017-06-16T18:12:23.089Z,14.97
2017-06-16T18:14:49.607Z,9.00
2017-06-16T18:17:16.178Z,13.27
2017-06-16T18:19:42.441Z,7.47
2017-06-16T18:22:08.750Z,6.40
2017-06-16T18:24:35.123Z,5.50
2017-06-16T18:27:01.461Z,6.37
2017-06-16T18:29:28.631Z,6.60
2017-06-16T18:31:54.967Z,5.67
2017-06-16T18:34:21.330Z,5.30
2017-06-16T18:36:47.702Z,6.60
2017-06-16T18:39:14.160Z,9.27
2017-06-16T18:41:40.575Z,4.80
2017-06-16T18:44:07.877Z,7.20
2017-06-16T18:46:34.213Z,3.50
2017-06-16T18:49:00.514Z,8.40
2017-06-16T18:51:26.881Z,5.03
2017-06-16T18:53:53.948Z,8.60
2017-06-16T18:56:20.857Z,3.57
2017-06-16T18:58:47.743Z,5.77
2017-06-16T19:01:14.083Z,3.57
2017-06-16T19:03:40.759Z,6.50
2017-06-16T19:06:07.055Z,8.17
2017-06-16T19:08:34.184Z,4.83
2017-06-16T19:11:01.613Z,6.93
2017-06-16T19:13:28.903Z,4.80
2017-06-16T19:15:55.127Z,4.43
2017-06-16T19:18:22.142Z,7.93
2017-06-16T19:20:48.543Z,4.70
2017-06-16T19:23:14.737Z,6.00
2017-06-16T19:25:42.349Z,4.83
2017-06-16T19:28:09.312Z,6.80
2017-06-16T19:30:35.569Z,6.40
2017-06-16T19:33:02.642Z,4.30
2017-06-16T19:35:29.770Z,8.13
2017-06-16T19:37:56.994Z,8.20
2017-06-16T19:40:23.974Z,4.03
2017-06-16T19:42:50.243Z,6.10
2017-06-16T19:45:16.475Z,5.57
2017-06-16T19:47:42.753Z,6.27
2017-06-16T19:50:10.237Z,6.97
2017-06-16T19:52:36.448Z,4.10
2017-06-16T19:55:02.690Z,5.43
2017-06-16T19:57:28.906Z,4.53
2017-06-16T19:59:55.149Z,7.53
2017-06-16T20:02:21.414Z,6.77
2017-06-16T20:04:47.656Z,9.73
2017-06-16T20:07:13.971Z,5.20
2017-06-16T20:09:40.216Z,4.93
2017-06-16T20:12:06.489Z,6.93
2017-06-16T20:14:32.685Z,6.80
2017-06-16T20:16:58.914Z,5.67
2017-06-16T20:19:25.798Z,3.70
2017-06-16T20:21:52.115Z,6.77
2017-06-16T20:24:20.135Z,5.17
2017-06-16T20:26:57.275Z,3.50
2017-06-16T20:29:36.615Z,9.40
2017-06-16T20:32:21.690Z,6.63
2017-06-16T20:34:51.814Z,3.20
2017-06-16T20:37:18.004Z,7.70
2017-06-16T20:39:44.205Z,6.00
2017-06-16T20:42:10.493Z,5.50
2017-06-16T20:44:36.692Z,7.50
2017-06-16T20:47:04.300Z,4.40
2017-06-16T20:49:30.592Z,4.00
2017-06-16T20:51:57.555Z,6.00
2017-06-16T20:54:24.782Z,4.37
2017-06-16T20:56:51.034Z,8.90
2017-06-16T20:59:17.970Z,10.00
2017-06-16T21:01:44.964Z,6.10
2017-06-16T21:04:11.142Z,4.43
2017-06-16T21:06:38.175Z,9.53
2017-06-16T21:09:04.361Z,4.63
2017-06-16T21:11:30.544Z,3.50
2017-06-16T21:13:57.496Z,6.57
2017-06-16T21:16:24.503Z,4.07
2017-06-16T21:18:50.704Z,3.90
2017-06-16T21:21:17.768Z,3.40
2017-06-16T21:23:43.997Z,3.23
2017-06-16T21:26:10.225Z,4.53
2017-06-16T21:28:36.427Z,3.87
2017-06-16T21:31:02.686Z,5.30
2017-06-16T21:33:28.912Z,4.23
2017-06-16T21:35:55.071Z,5.73
2017-06-16T21:38:21.307Z,4.03
2017-06-16T21:40:47.491Z,4.67
2017-06-16T21:43:13.683Z,7.67
2017-06-16T21:45:40.683Z,8.03
2017-06-16T21:48:06.888Z,4.63
2017-06-16T21:50:33.113Z,3.87
2017-06-16T21:52:59.361Z,3.63
2017-06-16T21:55:26.475Z,4.20
2017-06-16T21:57:52.712Z,3.73
2017-06-16T22:00:18.981Z,4.53
2017-06-16T22:02:45.195Z,3.47
2017-06-16T22:05:11.381Z,3.40
2017-06-16T22:07:38.376Z,5.33
2017-06-16T22:10:04.581Z,7.03
2017-06-16T22:12:30.773Z,6.47
2017-06-16T22:14:56.977Z,5.40
2017-06-16T22:17:23.168Z,3.10
2017-06-16T22:19:49.385Z,6.13
2017-06-16T22:22:15.616Z,3.90
2017-06-16T22:24:44.331Z,4.53
2017-06-16T22:27:10.893Z,7.13
2017-06-16T22:29:37.109Z,3.83
2017-06-16T22:32:04.319Z,7.83
2017-06-16T22:34:30.477Z,3.30
2017-06-16T22:36:56.671Z,5.83
2017-06-16T22:39:22.826Z,5.97
2017-06-16T22:41:51.767Z,3.70
2017-06-16T22:44:18.743Z,9.17
2017-06-16T22:46:44.986Z,4.00
2017-06-16T22:49:18.077Z,5.30
2017-06-16T22:51:46.035Z,4.27
2017-06-16T22:54:12.241Z,5.50
2017-06-16T22:56:39.212Z,4.10
2017-06-16T22:59:05.456Z,7.10
2017-06-16T23:01:31.708Z,5.23
2017-06-16T23:03:58.002Z,5.90
2017-06-16T23:06:39.100Z,4.47
2017-06-16T23:09:06.328Z,6.40
2017-06-16T23:11:32.509Z,3.77
2017-06-16T23:13:59.046Z,3.87
2017-06-16T23:16:26.268Z,4.53
2017-06-16T23:18:52.795Z,5.13
2017-06-16T23:21:19.276Z,3.33
2017-06-16T23:23:47.034Z,5.80
2017-06-16T23:26:14.364Z,4.20
2017-06-16T23:28:40.883Z,4.93
2017-06-16T23:31:07.037Z,6.40
2017-06-16T23:33:33.293Z,4.80
2017-06-16T23:35:59.566Z,4.93
2017-06-16T23:38:40.760Z,4.13
2017-06-16T23:41:07.376Z,4.83
2017-06-16T23:43:33.610Z,4.60
2017-06-16T23:45:59.910Z,4.20
2017-06-16T23:48:26.911Z,5.50
2017-06-16T23:50:53.165Z,6.40
2017-06-16T23:53:19.514Z,4.40
2017-06-16T23:55:46.654Z,4.67
2017-06-16T23:58:12.840Z,7.30
